Aérodrome :
LOGIN :

S'inscrire | Disclaimer

   EN    FR    IT 

 










Légende :    VFR   VFR Marginal   IFR   IFR Intensif   IFR Très Intensif
Visi : 
Plafond : 
>= 8 km
>= 3000ft
5 à 8 km
1000 à 3000 ft
1500m à 5 km
500 à 1000 ft
800 à 1500m
200 à 500 ft
< 800m
< 200 ft
Symboles :   Orages  Brouillard  Fortes neiges  Fortes précipitations  Vent > 20 kt
SIGMETs :   Divers  Orages  Givrage  Turbulence  Onde Orograph.  Cendres Volcan.






- Altitude de l'aérodrome : 18 ft


LIPC - Cervia AFB Ravenna

DERNIER METAR :
  • 290655Z 08006KT 9999 SCT030 SCT050 18/15 Q1006 RMK BKN VIS MIN 9999 WIND THR11 08005KT WIND THR29 09006KT BLU

METARs EXPIRÉS :
  • 290555Z 09004KT 9999 SCT020 SCT050 16/15 Q1006
  • 290455Z VRB02KT 9999 -RA FEW020 SCT050 16/16 Q1007 RMK OVC BKN100 VIS MIN 9999 WIND THR11 VRB02KT WIND THR29 VRB03KT BLU

TAF TAF LIPC
Valide du 29 à 06h jusqu'au 29 à 15h UTC


290500Z 2906/2915 01010KT 9999 FEW020 SCT050
PROB30
TEMPO 2906/2915 5000 TSRA FEW015CB SCT020



MET'MAP, la Météo Aéronautique d'un coup d'oeil ! - Copyright ORBIFLY Décembre 2007 - Disclaimer

ORBIFLY MET'MAP TEAM :

Programmation & Développement : Alexandra Zaïnal
Sur une idée originale de : Baudouin d'Aumeries
Soutien technique & logistique : Manuel Goepfert
Assistance : Marc-Olivier Méhu

Contact : metmap@orbifly.com




SOURCES & CREDITS :

   NOAA